Nearby METAR Reports

 

LFSI - St. Dizier/Robin, France
Distance from station: SO 26km
Mise à jour: 24/05/2024 08:30
clair
clair
 Wind from SSO
Vent: SSO 7 km/h
Température: 14°C
Point de rosée: 11°C
Humidité: 82%
Baromètre: 1018 hPa
Résumé: clair
Visibility: greater than 10 km
2024/05/24 06:30 LFSI 240630Z AUTO 21004KT 180V250 CAVOK 14/11 Q1018
LFSO - Nancy/Ochey (faf, France
Distance from station: ESE 62km
Mise à jour: 24/05/2024 08:30
clair
clair
 Wind from varies
Vent: varies 6 km/h
Température: 13°C
Point de rosée: 11°C
Humidité: 88%
Baromètre: 1018 hPa
Résumé: clair
Visibility: greater than 10 km
2024/05/24 06:30 LFSO 240630Z AUTO VRB03KT CAVOK 13/11 Q1018 NOSIG
LFOK - Chalons/Vatry Fa, France
Distance from station: O 73km
Mise à jour: 24/05/2024 08:30
partiellement nuageux
partiellement nuageux
 Wind from SSO
Vent: SSO 7 km/h
Température: 13°C
Point de rosée: 12°C
Humidité: 94%
Baromètre: 1018 hPa
Clouds: partiellement nuageux
Visibility: 10 km
2024/05/24 06:30 LFOK 240630Z AUTO 20004KT 9999 // NSC 13/12 Q1018
 
LFSN - Nancy/Essey, France
Distance from station: E 77km
Mise à jour: 24/05/2024 08:30
nuageux
nuageux
 Wind from varies
Vent: varies 2 km/h
Température: 14°C
Point de rosée: 12°C
Humidité: 88%
Baromètre: 1018 hPa
Clouds: nuageux
Visibility: 10 km
Cloud details: partiellement nuageux 732 m
nuageux 2256 m
2024/05/24 06:30 LFSN 240630Z AUTO VRB01KT 9999 SCT024 BKN074 14/12 Q1018
LFSG - Epinal/Mirecourt, France
Distance from station: SE 81km
Mise à jour: 24/05/2024 08:30
clair
clair
 Wind from OSO
Vent: OSO 6 km/h
Température: 12°C
Point de rosée: 12°C
Humidité: 100%
Baromètre: 1018 hPa
Résumé: clair
Visibility: greater than 10 km
2024/05/24 06:30 LFSG 240630Z AUTO 24003KT 200V270 CAVOK 12/12 Q1018
LFJL - Metz-Nancy-Lorra, France
Distance from station: ENE 82km
Mise à jour: 24/05/2024 08:30
Few Clouds
Few Clouds
 Wind from OSO
Vent: OSO 7 km/h
Température: 14°C
Point de rosée: 12°C
Humidité: 88%
Baromètre: 1018 hPa
Clouds: Few Clouds
Visibility: 10 km
Cloud details: Few Clouds 1219 m
2024/05/24 06:30 LFJL 240630Z AUTO 24004KT 9999 FEW040 14/12 Q1018 TEMPO BKN012 FEW015TCU
 
LFQA - Reims/Prunay, France
Distance from station: ONO 89km
Mise à jour: 24/05/2024 08:30
nuageux
nuageux
 Wind from E
Vent: E 6 km/h
Température: 13°C
Point de rosée: 12°C
Humidité: 94%
Baromètre: 1018 hPa
Clouds: nuageux
Visibility: 10 km
Cloud details: partiellement nuageux 61 m
nuageux 3658 m
2024/05/24 06:30 LFQA 240630Z AUTO 10003KT 9999 SCT002 BKN120 13/12 Q1018
LFQB - Troyes/Barberey, France
Distance from station: OSO 99km
Mise à jour: 24/05/2024 08:30
partiellement nuageux
partiellement nuageux
 Wind from varies
Vent: varies 6 km/h
Température: 14°C
Point de rosée: 12°C
Humidité: 88%
Baromètre: 1018 hPa
Clouds: partiellement nuageux
2024/05/24 06:30 LFQB 240630Z AUTO VRB03KT //// // NSC 14/12 Q1018